Time;durP1;ratioP1;P1;durP2;ratioP2;P2;SDS_P1;SDS_P2;PMS_P1;PMS_P2;Temp;Humidity;BMP_temperature;BMP_pressure;BME280_temperature;BME280_humidity;BME280_pressure;Samples;Min_cycle;Max_cycle;Signal;HPM_P1;HPM_P2
2023/04/28 00:00:53;;;;;;;9.18;7.20;;;;;;;;;;5035390;28;20045;-72
2023/04/28 00:03:19;;;;;;;9.40;7.05;;;;;;;;;;5005496;28;20397;-72
2023/04/28 00:05:46;;;;;;;11.13;7.22;;;;;;;;;;5024975;28;20045;-72
2023/04/28 00:08:12;;;;;;;9.57;6.60;;;;;;;;;;5018985;28;20045;-72
2023/04/28 00:10:38;;;;;;;11.68;7.60;;;;;;;;;;5036261;28;20042;-72
2023/04/28 00:13:04;;;;;;;11.20;7.82;;;;;;;;;;5018776;28;20045;-72
2023/04/28 00:15:30;;;;;;;10.18;7.57;;;;;;;;;;5001962;28;20493;-72
2023/04/28 00:17:56;;;;;;;10.70;7.03;;;;;;;;;;5036338;28;20046;-72
2023/04/28 00:20:22;;;;;;;10.68;7.72;;;;;;;;;;5037689;28;20099;-72
2023/04/28 00:22:49;;;;;;;9.85;7.40;;;;;;;;;;5055084;28;20072;-72
2023/04/28 00:25:15;;;;;;;9.52;7.22;;;;;;;;;;5038446;28;20099;-72
2023/04/28 00:27:41;;;;;;;10.05;7.75;;;;;;;;;;5056107;28;20044;-72
2023/04/28 00:30:07;;;;;;;9.90;7.38;;;;;;;;;;5054205;28;20505;-72
2023/04/28 00:32:33;;;;;;;9.93;7.50;;;;;;;;;;5055676;28;20049;-72
2023/04/28 00:35:00;;;;;;;10.38;7.22;;;;;;;;;;5055841;28;20490;-72
2023/04/28 00:37:26;;;;;;;12.75;7.68;;;;;;;;;;5056168;28;20045;-71
2023/04/28 00:39:58;;;;;;;10.50;7.57;;;;;;;;;;5046333;28;20041;-71
2023/04/28 00:42:24;;;;;;;12.73;7.68;;;;;;;;;;5034824;28;20056;-72
2023/04/28 00:44:50;;;;;;;11.68;7.82;;;;;;;;;;5015631;28;20046;-71
2023/04/28 00:47:18;;;;;;;10.80;7.28;;;;;;;;;;5016110;28;20049;-72
2023/04/28 00:49:44;;;;;;;10.82;7.53;;;;;;;;;;5016788;28;20077;-72
2023/04/28 00:52:10;;;;;;;11.32;7.65;;;;;;;;;;5036666;28;20042;-72
2023/04/28 00:54:37;;;;;;;10.73;7.50;;;;;;;;;;5022502;28;20042;-72
2023/04/28 00:57:03;;;;;;;9.50;7.40;;;;;;;;;;5014379;28;20057;-72
2023/04/28 00:59:30;;;;;;;10.43;7.45;;;;;;;;;;5030798;28;20049;-72
2023/04/28 01:01:56;;;;;;;8.70;6.97;;;;;;;;;;5032862;28;20044;-72
2023/04/28 01:04:22;;;;;;;9.60;7.00;;;;;;;;;;5037484;28;20106;-71
2023/04/28 01:06:53;;;;;;;13.25;7.75;;;;;;;;;;5035683;28;20041;-72
2023/04/28 01:09:19;;;;;;;10.70;7.32;;;;;;;;;;5054504;28;20390;-72
2023/04/28 01:11:45;;;;;;;10.63;7.07;;;;;;;;;;5054472;28;20045;-72
2023/04/28 01:14:11;;;;;;;11.13;7.03;;;;;;;;;;5025818;28;20052;-72
2023/04/28 01:16:37;;;;;;;9.48;7.05;;;;;;;;;;5017460;28;20111;-71
2023/04/28 01:19:06;;;;;;;11.00;7.13;;;;;;;;;;5034404;28;20420;-71
2023/04/28 01:21:33;;;;;;;9.20;7.18;;;;;;;;;;5033551;28;20047;-71
2023/04/28 01:23:59;;;;;;;10.90;7.05;;;;;;;;;;5018060;28;20372;-70
2023/04/28 01:26:25;;;;;;;8.45;6.50;;;;;;;;;;5035065;28;20402;-70
2023/04/28 01:28:52;;;;;;;9.38;7.13;;;;;;;;;;5035150;28;20407;-71
2023/04/28 01:31:18;;;;;;;9.88;7.18;;;;;;;;;;5016967;28;20053;-71
2023/04/28 01:33:44;;;;;;;9.65;7.10;;;;;;;;;;5023810;28;20401;-71
2023/04/28 01:36:10;;;;;;;10.75;7.32;;;;;;;;;;5051990;28;20202;-72
2023/04/28 01:38:36;;;;;;;9.40;7.20;;;;;;;;;;5054900;28;20447;-72
2023/04/28 01:41:02;;;;;;;9.73;7.13;;;;;;;;;;5053257;28;20045;-72
2023/04/28 01:43:28;;;;;;;10.88;7.45;;;;;;;;;;5054908;28;20396;-72
2023/04/28 01:45:55;;;;;;;9.80;7.28;;;;;;;;;;5052840;28;20044;-72
2023/04/28 01:48:21;;;;;;;12.30;7.35;;;;;;;;;;5036832;28;20044;-72
2023/04/28 01:50:47;;;;;;;11.20;7.68;;;;;;;;;;5052405;28;20117;-71
2023/04/28 01:53:13;;;;;;;11.32;7.75;;;;;;;;;;5054188;28;20045;-71
2023/04/28 01:55:39;;;;;;;9.65;7.57;;;;;;;;;;5054457;28;20091;-72
2023/04/28 01:58:06;;;;;;;12.98;8.05;;;;;;;;;;5054230;28;20055;-71
2023/04/28 02:00:32;;;;;;;10.90;8.30;;;;;;;;;;5053865;28;20048;-71
2023/04/28 02:02:58;;;;;;;13.43;8.48;;;;;;;;;;5053734;28;20041;-72
2023/04/28 02:05:24;;;;;;;12.07;7.88;;;;;;;;;;5052861;28;20045;-72
2023/04/28 02:07:50;;;;;;;13.23;8.32;;;;;;;;;;5052643;28;20044;-72
2023/04/28 02:10:16;;;;;;;13.73;8.20;;;;;;;;;;5053528;28;20566;-71
2023/04/28 02:12:42;;;;;;;12.43;8.02;;;;;;;;;;5053002;28;20128;-71
2023/04/28 02:15:08;;;;;;;13.05;8.32;;;;;;;;;;5052555;28;20520;-72
2023/04/28 02:17:34;;;;;;;13.57;9.00;;;;;;;;;;5051010;28;20448;-72
2023/04/28 02:20:00;;;;;;;12.85;9.32;;;;;;;;;;5053645;28;20048;-72
2023/04/28 02:22:26;;;;;;;12.95;9.80;;;;;;;;;;5053563;28;20499;-72
2023/04/28 02:24:52;;;;;;;12.55;9.18;;;;;;;;;;5052929;28;20052;-72
2023/04/28 02:27:19;;;;;;;15.65;9.57;;;;;;;;;;5052236;28;20128;-72
2023/04/28 02:29:45;;;;;;;15.52;10.48;;;;;;;;;;5050911;28;20148;-72
2023/04/28 02:32:11;;;;;;;15.32;10.18;;;;;;;;;;5052320;28;20060;-72
2023/04/28 02:34:37;;;;;;;14.52;9.90;;;;;;;;;;5053659;28;20063;-72
2023/04/28 02:37:03;;;;;;;16.08;10.82;;;;;;;;;;5054070;28;20090;-72
2023/04/28 02:39:30;;;;;;;15.70;10.57;;;;;;;;;;5056192;28;20497;-72
2023/04/28 02:41:56;;;;;;;16.50;11.30;;;;;;;;;;5055730;28;20135;-72
2023/04/28 02:44:23;;;;;;;19.52;12.52;;;;;;;;;;5054382;28;20075;-72
2023/04/28 02:46:49;;;;;;;17.20;11.90;;;;;;;;;;5035506;28;20404;-72
2023/04/28 02:49:15;;;;;;;17.42;11.85;;;;;;;;;;5053364;28;20390;-73
2023/04/28 02:51:41;;;;;;;19.95;12.95;;;;;;;;;;5053318;28;20131;-72
2023/04/28 02:54:07;;;;;;;18.35;11.93;;;;;;;;;;5049888;28;20614;-72
2023/04/28 02:56:34;;;;;;;17.70;12.38;;;;;;;;;;5018986;28;20059;-71
2023/04/28 02:59:00;;;;;;;17.83;12.73;;;;;;;;;;5052761;28;20056;-72
2023/04/28 03:01:26;;;;;;;17.60;13.05;;;;;;;;;;5052680;28;20044;-72
2023/04/28 03:03:52;;;;;;;20.90;13.57;;;;;;;;;;5052871;28;20071;-72
2023/04/28 03:06:18;;;;;;;19.10;12.68;;;;;;;;;;5052985;28;20465;-72
2023/04/28 03:08:44;;;;;;;19.17;12.93;;;;;;;;;;5035031;28;20044;-72
2023/04/28 03:11:10;;;;;;;21.40;13.90;;;;;;;;;;5052741;28;20397;-72
2023/04/28 03:13:36;;;;;;;21.95;13.60;;;;;;;;;;5052736;28;20044;-72
2023/04/28 03:16:02;;;;;;;20.58;13.55;;;;;;;;;;5052592;28;20042;-71
2023/04/28 03:18:28;;;;;;;22.38;13.82;;;;;;;;;;5033027;28;20099;-71
2023/04/28 03:20:54;;;;;;;23.13;14.00;;;;;;;;;;5034198;28;20060;-71
2023/04/28 03:23:20;;;;;;;20.45;14.55;;;;;;;;;;5052907;28;20510;-72
2023/04/28 03:25:46;;;;;;;20.10;13.73;;;;;;;;;;5052865;28;20045;-72
2023/04/28 03:28:12;;;;;;;22.92;14.90;;;;;;;;;;5052582;28;20049;-72
2023/04/28 03:30:38;;;;;;;23.27;15.02;;;;;;;;;;5052364;28;20053;-71
2023/04/28 03:33:04;;;;;;;22.60;14.70;;;;;;;;;;5051031;28;20501;-71
2023/04/28 03:35:31;;;;;;;21.65;15.13;;;;;;;;;;5052073;28;20052;-71
2023/04/28 03:37:57;;;;;;;23.52;15.13;;;;;;;;;;5052864;28;20498;-71
2023/04/28 03:40:23;;;;;;;22.00;14.95;;;;;;;;;;5017889;28;20049;-72
2023/04/28 03:42:49;;;;;;;22.90;14.70;;;;;;;;;;5052914;28;20040;-71
2023/04/28 03:45:15;;;;;;;22.02;15.00;;;;;;;;;;5051846;28;20118;-71
2023/04/28 03:47:41;;;;;;;21.90;15.52;;;;;;;;;;5034236;28;20052;-72
2023/04/28 03:50:07;;;;;;;23.80;14.95;;;;;;;;;;5045035;28;20068;-72
2023/04/28 03:52:33;;;;;;;23.75;14.50;;;;;;;;;;5046451;28;20048;-71
2023/04/28 03:54:59;;;;;;;24.60;14.73;;;;;;;;;;5033602;28;20401;-72
2023/04/28 03:57:25;;;;;;;21.38;14.95;;;;;;;;;;5034691;28;20048;-72
2023/04/28 03:59:51;;;;;;;20.88;14.52;;;;;;;;;;5052168;28;20045;-72
2023/04/28 04:02:17;;;;;;;23.58;15.40;;;;;;;;;;5034453;28;20469;-72
2023/04/28 04:04:44;;;;;;;19.75;14.07;;;;;;;;;;5052051;28;20456;-72
2023/04/28 04:07:10;;;;;;;22.63;15.23;;;;;;;;;;5030682;28;20120;-72
2023/04/28 04:09:36;;;;;;;22.02;14.43;;;;;;;;;;5026998;28;20068;-72
2023/04/28 04:12:02;;;;;;;23.50;14.82;;;;;;;;;;5051996;28;20041;-72
2023/04/28 04:14:28;;;;;;;22.67;13.57;;;;;;;;;;5033451;28;20115;-72
2023/04/28 04:16:54;;;;;;;21.55;13.35;;;;;;;;;;5033361;28;20537;-72
2023/04/28 04:19:22;;;;;;;20.73;13.05;;;;;;;;;;5051956;28;20044;-71
2023/04/28 04:21:49;;;;;;;20.02;13.18;;;;;;;;;;5033970;28;20045;-72
2023/04/28 04:24:15;;;;;;;18.92;13.13;;;;;;;;;;5051802;28;20047;-72
2023/04/28 04:26:41;;;;;;;19.63;12.75;;;;;;;;;;5034369;28;20499;-72
2023/04/28 04:29:07;;;;;;;22.58;13.85;;;;;;;;;;5051581;28;20136;-71
2023/04/28 04:31:33;;;;;;;21.17;13.15;;;;;;;;;;5051769;28;20508;-71
2023/04/28 04:33:59;;;;;;;18.10;12.50;;;;;;;;;;5050602;28;20053;-71
2023/04/28 04:36:25;;;;;;;19.63;12.65;;;;;;;;;;5033382;28;20041;-72
2023/04/28 04:38:51;;;;;;;18.15;12.43;;;;;;;;;;5051222;28;20033;-72
2023/04/28 04:41:20;;;;;;;18.08;11.70;;;;;;;;;;5051714;28;20048;-72
2023/04/28 04:43:46;;;;;;;18.83;12.80;;;;;;;;;;5051851;28;20072;-72
2023/04/28 04:46:13;;;;;;;17.35;11.75;;;;;;;;;;5055207;28;20040;-72
2023/04/28 04:48:39;;;;;;;18.95;13.30;;;;;;;;;;5037835;28;20393;-72
2023/04/28 04:51:05;;;;;;;22.80;13.40;;;;;;;;;;5055222;28;20049;-72
2023/04/28 04:53:32;;;;;;;18.05;12.50;;;;;;;;;;5055171;28;20402;-72
2023/04/28 04:55:58;;;;;;;20.55;12.95;;;;;;;;;;5055067;28;20045;-72
2023/04/28 04:58:24;;;;;;;20.27;12.98;;;;;;;;;;5054704;28;20040;-72
2023/04/28 05:00:50;;;;;;;17.52;12.65;;;;;;;;;;5054478;28;20048;-72
2023/04/28 05:03:16;;;;;;;21.88;12.57;;;;;;;;;;5054967;28;20049;-73
2023/04/28 05:05:44;;;;;;;18.60;12.48;;;;;;;;;;5030630;28;20929;-72
2023/04/28 05:08:10;;;;;;;21.35;12.57;;;;;;;;;;5055065;28;20057;-72
2023/04/28 05:10:36;;;;;;;21.48;12.30;;;;;;;;;;5037044;28;20045;-71
2023/04/28 05:13:03;;;;;;;20.58;12.65;;;;;;;;;;5055005;28;20037;-73
2023/04/28 05:15:29;;;;;;;21.40;12.88;;;;;;;;;;5054532;28;20044;-72
2023/04/28 05:17:56;;;;;;;18.75;12.20;;;;;;;;;;5054898;28;20037;-72
2023/04/28 05:20:22;;;;;;;17.20;12.02;;;;;;;;;;5053867;28;20045;-72
2023/04/28 05:22:48;;;;;;;18.48;11.32;;;;;;;;;;5033322;28;20041;-72
2023/04/28 05:25:14;;;;;;;19.52;12.25;;;;;;;;;;5055090;28;20037;-72
2023/04/28 05:27:40;;;;;;;18.25;11.52;;;;;;;;;;5057046;28;20048;-73
2023/04/28 05:30:07;;;;;;;16.80;11.55;;;;;;;;;;5055491;28;20115;-72
2023/04/28 05:32:33;;;;;;;18.77;11.55;;;;;;;;;;5053496;28;20045;-72
2023/04/28 05:35:00;;;;;;;22.05;11.82;;;;;;;;;;5020009;28;20138;-72
2023/04/28 05:37:26;;;;;;;16.90;11.18;;;;;;;;;;5054139;28;20045;-72
2023/04/28 05:39:52;;;;;;;19.80;11.82;;;;;;;;;;5054356;28;20036;-72
2023/04/28 05:42:18;;;;;;;22.63;11.35;;;;;;;;;;5036719;28;20095;-72
2023/04/28 05:44:44;;;;;;;16.95;11.18;;;;;;;;;;5053368;28;20060;-71
2023/04/28 05:47:10;;;;;;;17.02;10.77;;;;;;;;;;5036408;28;20051;-72
2023/04/28 05:49:37;;;;;;;17.20;10.55;;;;;;;;;;5053893;28;20106;-72
2023/04/28 05:52:03;;;;;;;16.05;10.63;;;;;;;;;;5054428;28;20040;-72
2023/04/28 05:54:29;;;;;;;14.73;10.60;;;;;;;;;;5053726;28;20497;-72
2023/04/28 05:56:56;;;;;;;17.88;11.10;;;;;;;;;;5035754;28;20048;-72
2023/04/28 05:59:23;;;;;;;17.00;10.20;;;;;;;;;;5027647;28;20049;-72
2023/04/28 06:01:49;;;;;;;13.75;10.32;;;;;;;;;;5049510;28;20045;-73
2023/04/28 06:04:16;;;;;;;15.23;10.45;;;;;;;;;;5051205;28;20052;-72
2023/04/28 06:06:42;;;;;;;15.10;9.75;;;;;;;;;;5052815;28;20171;-76
2023/04/28 06:09:08;;;;;;;15.15;9.77;;;;;;;;;;5053734;28;20044;-75
2023/04/28 06:11:34;;;;;;;15.77;9.88;;;;;;;;;;5054230;28;20051;-76
2023/04/28 06:14:00;;;;;;;15.50;10.27;;;;;;;;;;5036441;28;20103;-76
2023/04/28 06:16:26;;;;;;;17.33;10.40;;;;;;;;;;5053373;28;20045;-76
2023/04/28 06:18:52;;;;;;;16.15;9.95;;;;;;;;;;5019354;28;20048;-75
2023/04/28 06:21:20;;;;;;;14.82;9.98;;;;;;;;;;5053845;28;20049;-76
2023/04/28 06:23:46;;;;;;;17.73;10.32;;;;;;;;;;5053928;28;20049;-76
2023/04/28 06:26:12;;;;;;;13.98;10.18;;;;;;;;;;5036010;28;20048;-76
2023/04/28 06:28:38;;;;;;;16.67;10.35;;;;;;;;;;5035879;28;20048;-76
2023/04/28 06:31:04;;;;;;;18.23;10.55;;;;;;;;;;5053205;28;20083;-76
2023/04/28 06:33:30;;;;;;;13.50;9.95;;;;;;;;;;5047377;28;20456;-76
2023/04/28 06:35:56;;;;;;;15.35;9.55;;;;;;;;;;5052082;28;20052;-76
2023/04/28 06:38:22;;;;;;;16.23;10.68;;;;;;;;;;5054000;28;20041;-76
2023/04/28 06:40:48;;;;;;;16.73;10.20;;;;;;;;;;5053655;28;20037;-76
2023/04/28 06:43:14;;;;;;;17.30;10.90;;;;;;;;;;5053581;28;20094;-75
2023/04/28 06:45:41;;;;;;;19.17;10.75;;;;;;;;;;5048393;28;20041;-75
2023/04/28 06:48:07;;;;;;;15.60;9.95;;;;;;;;;;5053520;28;20052;-75
2023/04/28 06:50:33;;;;;;;15.63;10.40;;;;;;;;;;5046988;28;20084;-74
2023/04/28 06:53:00;;;;;;;16.30;9.90;;;;;;;;;;5052723;28;20124;-75
2023/04/28 06:55:26;;;;;;;15.35;10.07;;;;;;;;;;5052164;28;20083;-76
2023/04/28 06:57:52;;;;;;;16.15;10.70;;;;;;;;;;5050563;28;20049;-76
2023/04/28 07:00:18;;;;;;;15.77;9.85;;;;;;;;;;5052297;28;20093;-75
2023/04/28 07:02:44;;;;;;;16.23;9.95;;;;;;;;;;5052932;28;20174;-76
2023/04/28 07:05:10;;;;;;;12.90;9.30;;;;;;;;;;5052877;28;20545;-76
2023/04/28 07:07:39;;;;;;;15.77;10.15;;;;;;;;;;5052804;28;20478;-75
2023/04/28 07:10:06;;;;;;;13.88;10.18;;;;;;;;;;5043625;28;20091;-76
2023/04/28 07:12:32;;;;;;;15.73;9.85;;;;;;;;;;5048694;28;20045;-76
2023/04/28 07:14:58;;;;;;;17.42;10.02;;;;;;;;;;5048850;28;20045;-76
2023/04/28 07:17:27;;;;;;;16.15;9.82;;;;;;;;;;5045581;28;20045;-76
2023/04/28 07:19:53;;;;;;;16.00;9.95;;;;;;;;;;5052385;28;20130;-76
2023/04/28 07:22:19;;;;;;;15.77;9.77;;;;;;;;;;5052414;28;20531;-76
2023/04/28 07:24:45;;;;;;;15.13;10.02;;;;;;;;;;5052546;28;20044;-76
2023/04/28 07:27:11;;;;;;;15.55;10.00;;;;;;;;;;5044300;28;20090;-76
2023/04/28 07:29:37;;;;;;;17.75;10.55;;;;;;;;;;5051202;28;20045;-76
2023/04/28 07:32:09;;;;;;;14.27;9.93;;;;;;;;;;5051109;28;20084;-76
2023/04/28 07:34:36;;;;;;;18.67;10.75;;;;;;;;;;5052491;28;20053;-76
2023/04/28 07:37:02;;;;;;;14.75;10.05;;;;;;;;;;5052666;28;20041;-76
2023/04/28 07:39:30;;;;;;;16.00;10.70;;;;;;;;;;5034507;28;20116;-76
2023/04/28 07:41:57;;;;;;;14.23;10.27;;;;;;;;;;5032293;28;20110;-76
2023/04/28 07:44:24;;;;;;;15.05;10.48;;;;;;;;;;5038461;28;20057;-76
2023/04/28 07:46:50;;;;;;;13.80;9.65;;;;;;;;;;5042405;28;20046;-77
2023/04/28 07:49:16;;;;;;;15.57;9.93;;;;;;;;;;5023114;28;20049;-77
2023/04/28 07:51:42;;;;;;;14.90;10.27;;;;;;;;;;5037393;28;20398;-77
2023/04/28 07:54:08;;;;;;;14.73;10.25;;;;;;;;;;5035322;28;20034;-77
2023/04/28 07:56:34;;;;;;;16.98;9.80;;;;;;;;;;5012460;28;20406;-76
2023/04/28 07:59:01;;;;;;;15.95;9.70;;;;;;;;;;5014918;28;20079;-77
2023/04/28 08:01:27;;;;;;;16.38;11.05;;;;;;;;;;5014373;28;20043;-76
2023/04/28 08:03:53;;;;;;;14.45;9.50;;;;;;;;;;5032390;28;20083;-77
2023/04/28 08:06:19;;;;;;;15.13;9.38;;;;;;;;;;5032300;28;20092;-76
2023/04/28 08:08:46;;;;;;;15.10;10.00;;;;;;;;;;5014786;28;20045;-76
2023/04/28 08:11:12;;;;;;;15.27;10.27;;;;;;;;;;5041332;28;20048;-76
2023/04/28 08:13:38;;;;;;;18.90;10.90;;;;;;;;;;5034209;28;20042;-76
2023/04/28 08:16:04;;;;;;;14.77;10.60;;;;;;;;;;5035020;28;20041;-75
2023/04/28 08:18:30;;;;;;;13.93;10.15;;;;;;;;;;5015151;28;20049;-75
2023/04/28 08:20:56;;;;;;;13.63;9.73;;;;;;;;;;5018188;28;20128;-76
2023/04/28 08:23:22;;;;;;;15.82;10.35;;;;;;;;;;5037427;28;20081;-76
2023/04/28 08:25:49;;;;;;;14.82;10.35;;;;;;;;;;5036228;28;20064;-75
2023/04/28 08:28:15;;;;;;;14.27;9.93;;;;;;;;;;5018551;28;20045;-76
2023/04/28 08:30:42;;;;;;;16.17;10.80;;;;;;;;;;5035633;28;20042;-76
2023/04/28 08:33:08;;;;;;;12.80;10.30;;;;;;;;;;5030594;28;20045;-76
2023/04/28 08:35:34;;;;;;;14.65;9.55;;;;;;;;;;5055975;28;20053;-76
2023/04/28 08:38:00;;;;;;;15.32;9.95;;;;;;;;;;5055889;28;20401;-75
2023/04/28 08:40:28;;;;;;;13.73;9.48;;;;;;;;;;5055981;28;20441;-76
2023/04/28 08:42:55;;;;;;;17.17;9.95;;;;;;;;;;5054028;28;20116;-76
2023/04/28 08:45:23;;;;;;;16.30;10.93;;;;;;;;;;5037892;28;20103;-76
2023/04/28 08:47:50;;;;;;;16.25;10.18;;;;;;;;;;5055599;28;20036;-76
2023/04/28 08:50:20;;;;;;;15.52;9.77;;;;;;;;;;5055054;28;20136;-77
2023/04/28 08:52:47;;;;;;;15.82;10.13;;;;;;;;;;5055722;28;20044;-76
2023/04/28 08:55:13;;;;;;;17.60;10.35;;;;;;;;;;5053881;28;20114;-75
2023/04/28 08:57:42;;;;;;;17.98;10.70;;;;;;;;;;5053425;28;20045;-75
2023/04/28 09:00:09;;;;;;;14.85;10.15;;;;;;;;;;5055114;28;20049;-75
2023/04/28 09:02:36;;;;;;;14.90;10.15;;;;;;;;;;5053841;28;20056;-76
2023/04/28 09:05:06;;;;;;;14.55;10.43;;;;;;;;;;5054590;28;20053;-76
2023/04/28 09:07:32;;;;;;;13.70;10.23;;;;;;;;;;5053674;28;20090;-78
2023/04/28 09:10:13;;;;;;;14.82;9.98;;;;;;;;;;5055230;28;20045;-77
2023/04/28 09:12:39;;;;;;;14.98;9.85;;;;;;;;;;5037388;28;20393;-77
2023/04/28 09:15:08;;;;;;;13.23;10.38;;;;;;;;;;5052765;28;20048;-76
2023/04/28 09:17:47;;;;;;;15.07;10.13;;;;;;;;;;5054763;28;20049;-76
2023/04/28 09:20:21;;;;;;;16.45;10.60;;;;;;;;;;5053340;28;20049;-76
2023/04/28 09:22:47;;;;;;;15.27;10.25;;;;;;;;;;5053812;28;20106;-77
2023/04/28 09:25:14;;;;;;;16.23;10.10;;;;;;;;;;5053296;28;20178;-77
2023/04/28 09:27:40;;;;;;;18.02;10.63;;;;;;;;;;5053124;28;20048;-77
2023/04/28 09:30:06;;;;;;;14.95;10.00;;;;;;;;;;5051242;28;20398;-76
2023/04/28 09:32:32;;;;;;;14.52;9.90;;;;;;;;;;5050876;28;20048;-76
2023/04/28 09:34:58;;;;;;;16.35;9.88;;;;;;;;;;5052987;28;20049;-76
2023/04/28 09:37:31;;;;;;;14.90;10.45;;;;;;;;;;5052139;28;20057;-76
2023/04/28 09:40:03;;;;;;;15.02;9.57;;;;;;;;;;5053862;28;20514;-77
2023/04/28 09:42:39;;;;;;;15.90;9.57;;;;;;;;;;5052277;28;20106;-76
2023/04/28 09:45:05;;;;;;;13.77;9.45;;;;;;;;;;5054506;28;20045;-76
2023/04/28 09:47:33;;;;;;;16.30;9.35;;;;;;;;;;5053146;28;20454;-76
2023/04/28 09:50:00;;;;;;;15.60;10.27;;;;;;;;;;5054394;28;20053;-76
2023/04/28 09:52:26;;;;;;;13.85;9.57;;;;;;;;;;5052075;28;20558;-76
2023/04/28 09:54:54;;;;;;;14.73;9.48;;;;;;;;;;5053722;28;20049;-76
2023/04/28 09:57:21;;;;;;;12.15;8.48;;;;;;;;;;5054412;28;20037;-77
2023/04/28 09:59:48;;;;;;;12.15;8.95;;;;;;;;;;5052911;28;20094;-76
2023/04/28 10:02:15;;;;;;;11.57;8.80;;;;;;;;;;5052815;28;20065;-76
2023/04/28 10:04:45;;;;;;;14.32;8.95;;;;;;;;;;5053036;28;20382;-76
2023/04/28 10:07:13;;;;;;;15.52;8.95;;;;;;;;;;5054158;28;20492;-76
2023/04/28 10:09:42;;;;;;;11.90;8.52;;;;;;;;;;5036210;28;20106;-76
2023/04/28 10:12:09;;;;;;;14.32;8.75;;;;;;;;;;5053928;28;20045;-75
2023/04/28 10:14:36;;;;;;;12.60;8.60;;;;;;;;;;5052389;28;20049;-77
2023/04/28 10:17:05;;;;;;;14.32;9.43;;;;;;;;;;5054092;28;20390;-76
2023/04/28 10:19:32;;;;;;;12.05;9.02;;;;;;;;;;5053667;28;20048;-76
2023/04/28 10:22:05;;;;;;;12.40;9.65;;;;;;;;;;5052806;28;20060;-76
2023/04/28 10:24:32;;;;;;;14.13;9.48;;;;;;;;;;5052703;28;20045;-76
2023/04/28 10:27:04;;;;;;;18.20;9.65;;;;;;;;;;5053597;28;20058;-76
2023/04/28 10:29:32;;;;;;;14.27;10.27;;;;;;;;;;5052276;28;20045;-76
2023/04/28 10:32:28;;;;;;;13.18;9.43;;;;;;;;;;5053400;28;20414;-75
2023/04/28 10:35:14;;;;;;;14.25;9.10;;;;;;;;;;5018335;28;20049;-76
2023/04/28 10:37:59;;;;;;;19.17;9.60;;;;;;;;;;5018097;28;20049;-76
2023/04/28 10:40:35;;;;;;;14.70;10.05;;;;;;;;;;5018808;28;20438;-77
2023/04/28 10:43:02;;;;;;;11.63;9.27;;;;;;;;;;5052965;28;20404;-77
2023/04/28 10:45:47;;;;;;;15.80;10.32;;;;;;;;;;5053147;28;20045;-76
2023/04/28 10:48:13;;;;;;;15.88;9.55;;;;;;;;;;5053276;28;20048;-77
2023/04/28 10:50:56;;;;;;;11.88;9.73;;;;;;;;;;5053324;28;20056;-76
2023/04/28 10:53:42;;;;;;;17.17;9.32;;;;;;;;;;5053034;28;20047;-75
2023/04/28 10:56:08;;;;;;;17.05;10.68;;;;;;;;;;5051683;28;20080;-76
2023/04/28 10:58:36;;;;;;;15.90;10.55;;;;;;;;;;5053162;28;20049;-74
2023/04/28 11:01:20;;;;;;;14.27;9.60;;;;;;;;;;5019067;28;20167;-76
2023/04/28 11:03:49;;;;;;;14.30;10.00;;;;;;;;;;5018816;28;20052;-74
2023/04/28 11:06:20;;;;;;;12.85;9.90;;;;;;;;;;5034059;28;20043;-73
2023/04/28 11:08:46;;;;;;;15.73;10.48;;;;;;;;;;5032663;28;20509;-73
2023/04/28 11:11:14;;;;;;;15.40;10.35;;;;;;;;;;5035878;28;20056;-73
2023/04/28 11:13:40;;;;;;;14.10;10.23;;;;;;;;;;5056082;28;20045;-74
2023/04/28 11:16:06;;;;;;;15.43;10.25;;;;;;;;;;5053530;28;20052;-73
2023/04/28 11:18:51;;;;;;;14.82;10.35;;;;;;;;;;5053340;28;20375;-76
2023/04/28 11:21:20;;;;;;;14.38;10.40;;;;;;;;;;5052817;28;20505;-75
2023/04/28 11:23:47;;;;;;;17.15;11.52;;;;;;;;;;5052857;28;20055;-75
2023/04/28 11:26:13;;;;;;;15.88;11.48;;;;;;;;;;5035268;28;20143;-75
2023/04/28 11:28:52;;;;;;;14.68;11.80;;;;;;;;;;5052834;28;20037;-75
2023/04/28 11:31:21;;;;;;;16.60;11.98;;;;;;;;;;5034426;28;20044;-75
2023/04/28 11:34:03;;;;;;;13.45;11.55;;;;;;;;;;5048746;28;20060;-75
2023/04/28 11:36:31;;;;;;;14.10;11.30;;;;;;;;;;5046893;28;20056;-75
2023/04/28 11:38:57;;;;;;;16.20;11.50;;;;;;;;;;5052664;28;20124;-75
2023/04/28 11:41:24;;;;;;;15.50;11.90;;;;;;;;;;5052651;28;20051;-75
2023/04/28 11:43:50;;;;;;;16.98;11.77;;;;;;;;;;5049568;28;20041;-75
2023/04/28 11:46:17;;;;;;;16.88;11.77;;;;;;;;;;5052778;28;20053;-75
2023/04/28 11:48:43;;;;;;;15.70;12.13;;;;;;;;;;5048500;28;20068;-76
2023/04/28 11:51:10;;;;;;;16.33;11.93;;;;;;;;;;5050332;28;20045;-77
2023/04/28 11:53:43;;;;;;;16.25;11.60;;;;;;;;;;5051243;28;20073;-75
2023/04/28 11:56:09;;;;;;;17.33;12.60;;;;;;;;;;5056660;28;20076;-75
2023/04/28 11:58:35;;;;;;;14.18;11.30;;;;;;;;;;5056512;28;20557;-74
2023/04/28 12:01:11;;;;;;;14.02;12.18;;;;;;;;;;5056242;28;20490;-75
2023/04/28 12:03:43;;;;;;;15.80;11.38;;;;;;;;;;5055199;28;20056;-74
2023/04/28 12:06:10;;;;;;;14.55;11.32;;;;;;;;;;5056629;28;20075;-76
2023/04/28 12:08:36;;;;;;;14.23;11.00;;;;;;;;;;5050816;28;20041;-76
2023/04/28 12:11:12;;;;;;;16.75;11.93;;;;;;;;;;5055082;28;20080;-76
2023/04/28 12:13:38;;;;;;;15.18;11.57;;;;;;;;;;5055845;28;20485;-76
2023/04/28 12:16:08;;;;;;;16.33;11.80;;;;;;;;;;5056103;28;20041;-76
2023/04/28 12:18:38;;;;;;;15.45;12.07;;;;;;;;;;5053805;28;20052;-76
2023/04/28 12:21:04;;;;;;;16.40;11.68;;;;;;;;;;5054287;28;20051;-76
2023/04/28 12:23:34;;;;;;;14.35;11.27;;;;;;;;;;5055557;28;20060;-76
2023/04/28 12:26:01;;;;;;;16.10;11.50;;;;;;;;;;5055509;28;20508;-76
2023/04/28 12:28:40;;;;;;;15.25;11.68;;;;;;;;;;5049758;28;20468;-76
2023/04/28 12:31:07;;;;;;;17.52;11.90;;;;;;;;;;5054180;28;20053;-76
2023/04/28 12:33:36;;;;;;;16.15;12.00;;;;;;;;;;5055454;28;20060;-76
2023/04/28 12:36:04;;;;;;;15.18;11.68;;;;;;;;;;5055914;28;20458;-75
2023/04/28 12:38:31;;;;;;;16.42;11.50;;;;;;;;;;5037912;28;20037;-75
2023/04/28 12:40:57;;;;;;;18.15;11.60;;;;;;;;;;5055394;28;20501;-77
2023/04/28 12:43:24;;;;;;;17.00;11.80;;;;;;;;;;5054331;28;20504;-75
2023/04/28 12:45:55;;;;;;;16.20;11.38;;;;;;;;;;5035487;28;20049;-75
2023/04/28 12:48:23;;;;;;;16.90;12.23;;;;;;;;;;5037969;28;20041;-75
2023/04/28 12:50:49;;;;;;;17.25;11.55;;;;;;;;;;5055505;28;20106;-78
2023/04/28 12:53:15;;;;;;;15.52;12.43;;;;;;;;;;5037572;28;20051;-76
2023/04/28 12:55:42;;;;;;;17.38;12.45;;;;;;;;;;5037060;28;20045;-76
2023/04/28 12:58:08;;;;;;;20.10;12.75;;;;;;;;;;5037279;28;20048;-76
2023/04/28 13:00:34;;;;;;;17.52;13.10;;;;;;;;;;5055129;28;20049;-75
2023/04/28 13:03:00;;;;;;;17.55;12.85;;;;;;;;;;5055131;28;20053;-77
2023/04/28 13:05:26;;;;;;;19.20;14.23;;;;;;;;;;5036706;28;20060;-77
2023/04/28 13:07:53;;;;;;;19.63;13.18;;;;;;;;;;5019318;28;20130;-76
2023/04/28 13:10:21;;;;;;;16.58;13.05;;;;;;;;;;5035368;28;20053;-76
2023/04/28 13:12:47;;;;;;;17.60;12.90;;;;;;;;;;5053218;28;20045;-76
2023/04/28 13:15:13;;;;;;;18.05;13.43;;;;;;;;;;5036963;28;20048;-77
2023/04/28 13:17:39;;;;;;;16.27;12.98;;;;;;;;;;5036894;28;20040;-76
2023/04/28 13:20:06;;;;;;;14.57;12.52;;;;;;;;;;5020560;28;20409;-76
2023/04/28 13:22:32;;;;;;;18.90;13.35;;;;;;;;;;5054882;28;20029;-76
2023/04/28 13:24:58;;;;;;;17.10;12.45;;;;;;;;;;5054808;28;20405;-77
2023/04/28 13:27:24;;;;;;;16.63;12.85;;;;;;;;;;5054513;28;20045;-75
2023/04/28 13:29:50;;;;;;;19.55;13.20;;;;;;;;;;5054677;28;20049;-75
2023/04/28 13:32:16;;;;;;;17.50;13.63;;;;;;;;;;5033210;28;20057;-75
2023/04/28 13:34:43;;;;;;;19.08;13.68;;;;;;;;;;5051508;28;20486;-75
2023/04/28 13:37:09;;;;;;;16.95;13.38;;;;;;;;;;5054478;28;20052;-76
2023/04/28 13:39:36;;;;;;;19.02;14.10;;;;;;;;;;5053115;28;20041;-76
2023/04/28 13:42:02;;;;;;;17.27;13.07;;;;;;;;;;5054091;28;20048;-76
2023/04/28 13:44:28;;;;;;;16.88;12.77;;;;;;;;;;5049285;28;20067;-77
2023/04/28 13:46:55;;;;;;;17.02;13.70;;;;;;;;;;5053994;28;20087;-76
2023/04/28 13:49:22;;;;;;;18.65;13.10;;;;;;;;;;5054531;28;20114;-76
2023/04/28 13:51:48;;;;;;;18.15;13.32;;;;;;;;;;5036334;28;20049;-76
2023/04/28 13:54:14;;;;;;;19.05;14.00;;;;;;;;;;5044426;28;20500;-76
2023/04/28 13:56:40;;;;;;;17.90;14.50;;;;;;;;;;5034259;28;20124;-76
2023/04/28 13:59:06;;;;;;;18.30;14.63;;;;;;;;;;5047510;28;20087;-76
2023/04/28 14:01:32;;;;;;;19.85;14.88;;;;;;;;;;5053985;28;20091;-76
2023/04/28 14:04:00;;;;;;;20.13;14.95;;;;;;;;;;5052551;28;20049;-76
2023/04/28 14:06:26;;;;;;;18.35;15.27;;;;;;;;;;5053255;28;20064;-76
2023/04/28 14:08:52;;;;;;;17.40;14.63;;;;;;;;;;5052336;28;20047;-76
2023/04/28 14:11:18;;;;;;;21.80;15.15;;;;;;;;;;5052197;28;20040;-75
2023/04/28 14:13:44;;;;;;;20.05;15.65;;;;;;;;;;5052338;28;20036;-78
2023/04/28 14:16:13;;;;;;;22.88;16.48;;;;;;;;;;5056875;28;20044;-76
2023/04/28 14:18:39;;;;;;;25.33;17.27;;;;;;;;;;5055604;28;20051;-76
2023/04/28 14:21:07;;;;;;;24.88;19.02;;;;;;;;;;5055272;28;20044;-74